Time;durP1;ratioP1;P1;durP2;ratioP2;P2;SDS_P1;SDS_P2;PMS_P1;PMS_P2;Temp;Humidity;BMP_temperature;BMP_pressure;BME280_temperature;BME280_humidity;BME280_pressure;Samples;Min_cycle;Max_cycle;Signal;HPM_P1;HPM_P2
2022/03/05 00:00:30;;;;;;;0.20;0.20;;;5.70;99.90;;;;;;4993546;28;20456;-72
2022/03/05 00:02:56;;;;;;;16.98;1.48;;;5.70;99.90;;;;;;4992691;28;20117;-72
2022/03/05 00:05:22;;;;;;;0.10;0.10;;;5.60;99.90;;;;;;4993517;28;20026;-72
2022/03/05 00:07:48;;;;;;;0.10;0.10;;;5.60;99.90;;;;;;4993111;28;20026;-72
2022/03/05 00:10:14;;;;;;;0.00;0.00;;;5.60;99.90;;;;;;4997331;28;20018;-72
2022/03/05 00:12:40;;;;;;;0.10;0.10;;;5.60;99.90;;;;;;4996933;28;20034;-71
2022/03/05 00:15:07;;;;;;;0.52;0.52;;;5.60;99.90;;;;;;4997604;28;20532;-73
2022/03/05 00:17:32;;;;;;;0.00;0.00;;;5.60;99.90;;;;;;4997049;28;20105;-71
2022/03/05 00:19:58;;;;;;;1.10;1.02;;;5.70;99.90;;;;;;4996153;28;20157;-71
2022/03/05 00:22:24;;;;;;;0.00;0.00;;;5.60;99.90;;;;;;4997276;28;20371;-72
2022/03/05 00:24:50;;;;;;;0.10;0.10;;;5.60;99.90;;;;;;4996861;28;20057;-71
2022/03/05 00:27:17;;;;;;;0.80;0.80;;;5.50;99.90;;;;;;4996815;28;20141;-72
2022/03/05 00:29:42;;;;;;;0.00;0.00;;;5.40;99.90;;;;;;4997167;28;20029;-72
2022/03/05 00:32:08;;;;;;;0.10;0.10;;;5.30;99.90;;;;;;4996057;28;20027;-73
2022/03/05 00:34:34;;;;;;;0.88;0.88;;;5.30;99.90;;;;;;4997054;28;20490;-71
2022/03/05 00:36:59;;;;;;;0.30;0.30;;;5.20;99.90;;;;;;4996819;28;20041;-71
2022/03/05 00:39:25;;;;;;;1.95;0.93;;;5.10;99.90;;;;;;4996546;28;20029;-72
2022/03/05 00:41:50;;;;;;;0.15;0.15;;;5.10;99.90;;;;;;4996290;28;20401;-71
2022/03/05 00:44:16;;;;;;;0.00;0.00;;;5.00;99.90;;;;;;4996762;28;20050;-72
2022/03/05 00:46:42;;;;;;;15.57;4.25;;;5.10;99.90;;;;;;4997024;28;20022;-72
2022/03/05 00:49:08;;;;;;;0.00;0.00;;;5.00;99.90;;;;;;4996547;28;20057;-72
2022/03/05 00:51:33;;;;;;;0.82;0.82;;;5.00;99.90;;;;;;4996572;28;20038;-71
2022/03/05 00:53:59;;;;;;;0.13;0.13;;;4.90;99.90;;;;;;4996636;28;20390;-72
2022/03/05 00:56:25;;;;;;;0.30;0.30;;;5.00;99.90;;;;;;4996845;28;20045;-71
2022/03/05 00:58:50;;;;;;;0.00;0.00;;;5.00;99.90;;;;;;4996585;28;20022;-72
2022/03/05 01:01:16;;;;;;;2.70;0.85;;;5.00;99.90;;;;;;4996699;28;20490;-72
2022/03/05 01:03:43;;;;;;;0.43;0.40;;;5.00;99.90;;;;;;4996043;28;20026;-71
2022/03/05 01:06:08;;;;;;;0.65;0.65;;;5.00;99.90;;;;;;4995997;28;20104;-72
2022/03/05 01:08:34;;;;;;;0.32;0.32;;;5.00;99.90;;;;;;4996093;28;20046;-72
2022/03/05 01:11:00;;;;;;;0.00;0.00;;;5.00;99.90;;;;;;4996310;28;20069;-72
2022/03/05 01:13:26;;;;;;;0.20;0.20;;;5.00;99.90;;;;;;4995620;28;20479;-72
2022/03/05 01:15:51;;;;;;;0.73;0.73;;;5.00;99.90;;;;;;4995631;28;20169;-73
2022/03/05 01:18:17;;;;;;;0.10;0.10;;;4.90;99.90;;;;;;4995804;28;20030;-72
2022/03/05 01:20:43;;;;;;;0.00;0.00;;;5.00;99.90;;;;;;4988738;28;20022;-71
2022/03/05 01:23:08;;;;;;;2.58;1.25;;;4.90;99.90;;;;;;4991562;28;20070;-72
2022/03/05 01:25:34;;;;;;;0.00;0.00;;;4.90;99.90;;;;;;4976490;28;20050;-72
2022/03/05 01:28:00;;;;;;;0.20;0.20;;;4.80;99.90;;;;;;4975718;28;20035;-72
2022/03/05 01:30:25;;;;;;;1.38;1.30;;;4.90;99.90;;;;;;4976681;28;20023;-72
2022/03/05 01:32:51;;;;;;;0.10;0.10;;;4.80;99.90;;;;;;4976471;28;20026;-71
2022/03/05 01:35:18;;;;;;;0.20;0.20;;;4.80;99.90;;;;;;4976523;28;20023;-71
2022/03/05 01:37:44;;;;;;;0.10;0.10;;;4.70;99.90;;;;;;4976275;28;20085;-72
2022/03/05 01:40:10;;;;;;;0.05;0.05;;;4.70;99.90;;;;;;4976095;28;20026;-72
2022/03/05 01:42:36;;;;;;;0.22;0.22;;;4.70;99.90;;;;;;4976151;28;20034;-71
2022/03/05 01:45:02;;;;;;;1.55;0.70;;;4.60;99.90;;;;;;4976424;28;20161;-72
2022/03/05 01:47:27;;;;;;;1.25;0.63;;;4.60;99.90;;;;;;4976173;28;20027;-72
2022/03/05 01:49:53;;;;;;;0.85;0.85;;;4.50;99.90;;;;;;4985147;28;20600;-71
2022/03/05 01:52:19;;;;;;;0.10;0.10;;;4.50;99.90;;;;;;4994619;28;20088;-71
2022/03/05 01:54:45;;;;;;;0.00;0.00;;;4.50;99.90;;;;;;4994685;28;20033;-71
2022/03/05 01:57:12;;;;;;;0.60;0.45;;;4.40;99.90;;;;;;4995324;28;20031;-71
2022/03/05 01:59:37;;;;;;;0.00;0.00;;;4.40;99.90;;;;;;4995301;28;20026;-72
2022/03/05 02:02:04;;;;;;;0.77;0.77;;;4.40;99.90;;;;;;4995321;28;20469;-72
2022/03/05 02:04:30;;;;;;;24.83;0.68;;;4.30;99.90;;;;;;4994816;28;20441;-72
2022/03/05 02:06:55;;;;;;;1.10;1.00;;;4.30;99.90;;;;;;4995634;28;20034;-72
2022/03/05 02:09:21;;;;;;;0.75;0.60;;;4.30;99.90;;;;;;5010372;28;20018;-72
2022/03/05 02:11:47;;;;;;;0.38;0.38;;;4.20;99.90;;;;;;4995137;28;20030;-72
2022/03/05 02:14:18;;;;;;;7.22;2.70;;;4.20;99.90;;;;;;4993979;28;20031;-72
2022/03/05 02:16:45;;;;;;;1.80;0.52;;;4.20;99.90;;;;;;4994795;28;20022;-71
2022/03/05 02:19:11;;;;;;;0.00;0.00;;;4.20;99.90;;;;;;4995142;28;20030;-72
2022/03/05 02:21:36;;;;;;;0.45;0.45;;;4.10;99.90;;;;;;4994824;28;20442;-71
2022/03/05 02:24:02;;;;;;;1.80;1.45;;;4.10;99.90;;;;;;4994640;28;20086;-73
2022/03/05 02:26:28;;;;;;;0.10;0.10;;;4.10;99.90;;;;;;4994733;28;20102;-72
2022/03/05 02:28:55;;;;;;;0.38;0.38;;;4.00;99.90;;;;;;4994516;28;20066;-72
2022/03/05 02:31:21;;;;;;;3.55;1.85;;;4.00;99.90;;;;;;4994117;28;20483;-72
2022/03/05 02:33:47;;;;;;;0.17;0.17;;;4.00;99.90;;;;;;4994547;28;20030;-72
2022/03/05 02:36:13;;;;;;;0.50;0.50;;;4.00;99.90;;;;;;4994834;28;20018;-72
2022/03/05 02:38:39;;;;;;;0.50;0.50;;;4.00;99.90;;;;;;4994405;28;20374;-72
2022/03/05 02:41:05;;;;;;;0.20;0.20;;;4.00;99.90;;;;;;4994993;28;20018;-71
2022/03/05 02:43:30;;;;;;;0.20;0.20;;;4.00;99.90;;;;;;4994208;28;20031;-71
2022/03/05 02:45:56;;;;;;;0.00;0.00;;;3.90;99.90;;;;;;4994824;28;20359;-72
2022/03/05 02:48:22;;;;;;;0.00;0.00;;;3.90;99.90;;;;;;4994738;28;20069;-72
2022/03/05 02:50:50;;;;;;;0.98;0.82;;;3.90;99.90;;;;;;4994126;28;20021;-71
2022/03/05 02:53:16;;;;;;;0.00;0.00;;;3.80;99.90;;;;;;4994329;28;20033;-72
2022/03/05 02:55:43;;;;;;;0.47;0.45;;;3.80;99.90;;;;;;4994457;28;20023;-71
2022/03/05 02:58:08;;;;;;;0.20;0.20;;;3.80;99.90;;;;;;4994658;28;20493;-72
2022/03/05 03:00:34;;;;;;;0.73;0.73;;;3.80;99.90;;;;;;4994276;28;20069;-72
2022/03/05 03:03:00;;;;;;;0.15;0.15;;;3.80;99.90;;;;;;4993794;28;20058;-72
2022/03/05 03:05:26;;;;;;;0.50;0.50;;;3.70;99.90;;;;;;4993433;28;20027;-72
2022/03/05 03:07:52;;;;;;;0.20;0.20;;;3.70;99.90;;;;;;4994383;28;20054;-71
2022/03/05 03:10:18;;;;;;;0.35;0.35;;;3.70;99.90;;;;;;4994285;28;20026;-71
2022/03/05 03:12:44;;;;;;;0.10;0.10;;;3.70;99.90;;;;;;4994225;28;20026;-71
2022/03/05 03:15:12;;;;;;;0.82;0.52;;;3.70;99.90;;;;;;4994119;28;20034;-71
2022/03/05 03:17:42;;;;;;;0.00;0.00;;;3.70;99.90;;;;;;4993850;28;20034;-71
2022/03/05 03:20:12;;;;;;;0.40;0.40;;;3.60;99.90;;;;;;4994225;28;20033;-71
2022/03/05 03:22:39;;;;;;;0.30;0.30;;;3.60;99.90;;;;;;4993912;28;20034;-71
2022/03/05 03:25:05;;;;;;;0.00;0.00;;;3.60;99.90;;;;;;4993778;28;20430;-71
2022/03/05 03:27:30;;;;;;;0.17;0.17;;;3.60;99.90;;;;;;4993762;28;20045;-72
2022/03/05 03:29:56;;;;;;;0.20;0.20;;;3.50;99.90;;;;;;4994344;28;20030;-71
2022/03/05 03:32:22;;;;;;;0.10;0.10;;;3.50;99.90;;;;;;4993986;28;20033;-72
2022/03/05 03:34:48;;;;;;;10.27;1.95;;;3.50;99.90;;;;;;4993679;28;20037;-72
2022/03/05 03:37:13;;;;;;;5.80;0.85;;;3.50;99.90;;;;;;4993242;28;20093;-72
2022/03/05 03:39:39;;;;;;;0.30;0.30;;;3.50;99.90;;;;;;4993509;28;20038;-72
2022/03/05 03:42:05;;;;;;;0.10;0.10;;;3.50;99.90;;;;;;4993501;28;20545;-71
2022/03/05 03:44:31;;;;;;;0.17;0.10;;;3.40;99.90;;;;;;4993803;28;20046;-72
2022/03/05 03:46:57;;;;;;;0.10;0.10;;;3.50;99.90;;;;;;4994122;28;20449;-71
2022/03/05 03:49:23;;;;;;;0.57;0.57;;;3.50;99.90;;;;;;4993271;28;20010;-72
2022/03/05 03:51:49;;;;;;;2.08;1.08;;;3.40;99.90;;;;;;4993387;28;20045;-72
2022/03/05 03:54:15;;;;;;;0.15;0.15;;;3.40;99.90;;;;;;4993926;28;20065;-73
2022/03/05 03:56:40;;;;;;;1.77;1.10;;;3.40;99.90;;;;;;4993697;28;20406;-71
2022/03/05 03:59:06;;;;;;;0.13;0.13;;;3.40;99.90;;;;;;4993815;28;20054;-71
2022/03/05 04:01:32;;;;;;;0.22;0.22;;;3.40;99.90;;;;;;4993360;28;20038;-72
2022/03/05 04:03:57;;;;;;;18.42;0.93;;;3.30;99.90;;;;;;4993567;28;20393;-71
2022/03/05 04:06:23;;;;;;;0.30;0.30;;;3.30;99.90;;;;;;4992799;28;20066;-72
2022/03/05 04:08:49;;;;;;;0.38;0.38;;;3.30;99.90;;;;;;4993315;28;20015;-72
2022/03/05 04:11:18;;;;;;;0.55;0.55;;;3.30;99.90;;;;;;4992736;28;20030;-72
2022/03/05 04:13:45;;;;;;;0.00;0.00;;;3.30;99.90;;;;;;4992955;28;20022;-72
2022/03/05 04:16:12;;;;;;;0.22;0.22;;;3.30;99.90;;;;;;4993384;28;20091;-71
2022/03/05 04:18:38;;;;;;;0.10;0.10;;;3.30;99.90;;;;;;4993319;28;20506;-71
2022/03/05 04:21:06;;;;;;;0.10;0.10;;;3.30;99.90;;;;;;4993585;28;20521;-72
2022/03/05 04:23:32;;;;;;;0.30;0.30;;;3.20;99.90;;;;;;4975476;28;20033;-72
2022/03/05 04:25:59;;;;;;;2.28;0.38;;;3.20;99.90;;;;;;4972628;28;20037;-71
2022/03/05 04:28:24;;;;;;;0.40;0.40;;;3.30;99.90;;;;;;4973588;28;20031;-72
2022/03/05 04:30:50;;;;;;;1.55;1.45;;;3.30;99.90;;;;;;4973652;28;20027;-71
2022/03/05 04:33:16;;;;;;;0.77;0.75;;;3.30;99.90;;;;;;4973956;28;20030;-71
2022/03/05 04:35:41;;;;;;;0.00;0.00;;;3.30;99.90;;;;;;4973800;28;20066;-72
2022/03/05 04:38:07;;;;;;;0.20;0.20;;;3.30;99.90;;;;;;4973850;28;20027;-72
2022/03/05 04:40:33;;;;;;;2.00;1.05;;;3.30;99.90;;;;;;4973726;28;20035;-72
2022/03/05 04:42:59;;;;;;;0.00;0.00;;;3.20;99.90;;;;;;4973995;28;20026;-71
2022/03/05 04:45:26;;;;;;;0.00;0.00;;;3.20;99.90;;;;;;4973476;28;20116;-72
2022/03/05 04:47:52;;;;;;;0.32;0.32;;;3.20;99.90;;;;;;4973015;28;20019;-72
2022/03/05 04:50:17;;;;;;;0.80;0.73;;;3.10;99.90;;;;;;4986062;28;20027;-70
2022/03/05 04:52:43;;;;;;;1.98;1.75;;;3.20;99.90;;;;;;4993005;28;20026;-72
2022/03/05 04:55:09;;;;;;;5.15;1.42;;;3.10;99.90;;;;;;4995596;28;20030;-72
2022/03/05 04:57:36;;;;;;;0.63;0.45;;;3.10;99.90;;;;;;4996524;28;20508;-71
2022/03/05 05:00:05;;;;;;;0.00;0.00;;;3.10;99.90;;;;;;4996593;28;20030;-72
2022/03/05 05:02:31;;;;;;;2.72;0.90;;;3.20;99.90;;;;;;4996207;28;20117;-72
2022/03/05 05:04:56;;;;;;;0.52;0.52;;;3.20;99.90;;;;;;4996408;28;20458;-72
2022/03/05 05:07:22;;;;;;;1.38;1.27;;;3.30;99.90;;;;;;4996048;28;20026;-72
2022/03/05 05:09:47;;;;;;;0.30;0.30;;;3.30;99.90;;;;;;4994860;28;20034;-71
2022/03/05 05:12:16;;;;;;;0.20;0.20;;;3.40;99.90;;;;;;4996281;28;20504;-72
2022/03/05 05:14:42;;;;;;;10.35;1.77;;;3.40;99.90;;;;;;4996358;28;20041;-71
2022/03/05 05:17:07;;;;;;;0.20;0.20;;;3.50;99.90;;;;;;5011376;28;20030;-72
2022/03/05 05:19:33;;;;;;;2.63;1.02;;;3.40;99.90;;;;;;4996212;28;20113;-72
2022/03/05 05:22:01;;;;;;;0.45;0.45;;;3.50;99.90;;;;;;4990458;28;20038;-72
2022/03/05 05:24:30;;;;;;;20.63;0.93;;;3.50;99.90;;;;;;4976523;28;20030;-71
2022/03/05 05:26:56;;;;;;;0.00;0.00;;;3.50;99.90;;;;;;4975627;28;20382;-73
2022/03/05 05:29:23;;;;;;;0.60;0.38;;;3.50;99.90;;;;;;4976582;28;20094;-72
2022/03/05 05:31:50;;;;;;;0.00;0.00;;;3.50;99.90;;;;;;4976487;28;20019;-71
2022/03/05 05:34:16;;;;;;;0.15;0.15;;;3.50;99.90;;;;;;4976900;28;20026;-72
2022/03/05 05:36:42;;;;;;;0.00;0.00;;;3.60;99.90;;;;;;4976747;28;20186;-71
2022/03/05 05:39:10;;;;;;;2.72;1.10;;;3.70;99.90;;;;;;4976396;28;20031;-71
2022/03/05 05:41:37;;;;;;;0.55;0.55;;;3.70;99.90;;;;;;4976432;28;21934;-71
2022/03/05 05:44:09;;;;;;;0.00;0.00;;;3.80;99.90;;;;;;4976679;28;20089;-72
2022/03/05 05:46:34;;;;;;;0.00;0.00;;;3.80;99.90;;;;;;4976372;28;20069;-72
2022/03/05 05:49:00;;;;;;;0.00;0.00;;;3.90;99.90;;;;;;4978170;28;20054;-72
2022/03/05 05:51:27;;;;;;;0.15;0.15;;;4.00;99.90;;;;;;4995442;28;20510;-72
2022/03/05 05:53:52;;;;;;;1.45;0.60;;;4.00;99.90;;;;;;4995332;28;20077;-71
2022/03/05 05:56:18;;;;;;;2.40;0.70;;;4.10;99.90;;;;;;4995014;28;20026;-71
2022/03/05 05:58:45;;;;;;;2.17;0.75;;;4.10;99.90;;;;;;4995467;28;20018;-71
2022/03/05 06:01:11;;;;;;;0.45;0.45;;;4.10;99.90;;;;;;4994067;28;20030;-72
2022/03/05 06:03:37;;;;;;;0.65;0.50;;;4.00;99.90;;;;;;4995128;28;20037;-72
2022/03/05 06:06:03;;;;;;;4.78;1.83;;;3.90;99.90;;;;;;4994172;28;20031;-71
2022/03/05 06:08:28;;;;;;;0.00;0.00;;;3.90;99.90;;;;;;4994353;28;20023;-72
2022/03/05 06:10:55;;;;;;;0.65;0.65;;;3.90;99.90;;;;;;4995206;28;20031;-71
2022/03/05 06:13:21;;;;;;;0.00;0.00;;;3.90;99.90;;;;;;4995007;28;20069;-72
2022/03/05 06:15:47;;;;;;;0.20;0.20;;;3.90;99.90;;;;;;4994784;28;20485;-71
2022/03/05 06:18:13;;;;;;;1.45;1.13;;;3.80;99.90;;;;;;4995004;28;20054;-72
2022/03/05 06:20:38;;;;;;;0.55;0.55;;;3.90;99.90;;;;;;4995451;28;20034;-72
2022/03/05 06:23:04;;;;;;;0.00;0.00;;;3.80;99.90;;;;;;4981276;28;20101;-72
2022/03/05 06:25:31;;;;;;;0.20;0.20;;;3.80;99.90;;;;;;4975128;28;20166;-72
2022/03/05 06:27:56;;;;;;;0.00;0.00;;;3.80;99.90;;;;;;4975236;28;20027;-72
2022/03/05 06:30:22;;;;;;;0.43;0.43;;;3.80;99.90;;;;;;4975300;28;20030;-72
2022/03/05 06:32:48;;;;;;;0.00;0.00;;;3.70;99.90;;;;;;4974664;28;20147;-71
2022/03/05 06:35:14;;;;;;;0.00;0.00;;;3.70;99.90;;;;;;4977173;28;20031;-72
2022/03/05 06:37:40;;;;;;;1.35;1.15;;;3.70;99.90;;;;;;4994622;28;20026;-72
2022/03/05 06:40:06;;;;;;;0.00;0.00;;;3.70;99.90;;;;;;4994686;28;20026;-72
2022/03/05 06:42:32;;;;;;;1.17;1.08;;;3.70;99.90;;;;;;4994566;28;20041;-72
2022/03/05 06:44:58;;;;;;;1.63;1.08;;;3.70;99.90;;;;;;4994511;28;20429;-72
2022/03/05 06:47:24;;;;;;;0.38;0.38;;;3.70;99.90;;;;;;4994576;28;20032;-72
2022/03/05 06:49:49;;;;;;;0.15;0.15;;;3.70;99.90;;;;;;4994130;28;20497;-72
2022/03/05 06:52:18;;;;;;;0.10;0.10;;;3.70;99.90;;;;;;4994633;28;20490;-72
2022/03/05 06:54:44;;;;;;;0.57;0.57;;;3.70;99.90;;;;;;4994887;28;20061;-71
2022/03/05 06:57:09;;;;;;;0.10;0.10;;;3.70;99.90;;;;;;4994632;28;20449;-71
2022/03/05 06:59:35;;;;;;;0.10;0.10;;;3.70;99.90;;;;;;4994137;28;20057;-72
2022/03/05 07:02:01;;;;;;;0.05;0.05;;;3.70;99.90;;;;;;4994093;28;20378;-72
2022/03/05 07:04:26;;;;;;;0.00;0.00;;;3.70;99.90;;;;;;4994269;28;20029;-72
2022/03/05 07:06:52;;;;;;;0.00;0.00;;;3.70;99.90;;;;;;4993736;28;20027;-72
2022/03/05 07:09:18;;;;;;;0.30;0.30;;;3.80;99.90;;;;;;4993428;28;20030;-72
2022/03/05 07:11:43;;;;;;;0.22;0.22;;;3.80;99.90;;;;;;4993899;28;20041;-71
2022/03/05 07:14:09;;;;;;;0.10;0.10;;;3.80;99.90;;;;;;4993578;28;20101;-72
2022/03/05 07:16:35;;;;;;;0.95;0.38;;;3.90;99.90;;;;;;4993128;28;20030;-72
2022/03/05 07:19:00;;;;;;;0.10;0.10;;;3.90;99.90;;;;;;4994203;28;20493;-72
2022/03/05 07:21:26;;;;;;;0.00;0.00;;;4.00;99.90;;;;;;4993929;28;20485;-72
2022/03/05 07:23:52;;;;;;;0.20;0.20;;;4.10;99.90;;;;;;4993569;28;20101;-71
2022/03/05 07:26:18;;;;;;;0.10;0.10;;;4.20;99.90;;;;;;4994151;28;20034;-72
2022/03/05 07:28:46;;;;;;;0.57;0.57;;;4.30;99.90;;;;;;4993909;28;20445;-72
2022/03/05 07:31:12;;;;;;;0.20;0.20;;;4.40;99.90;;;;;;4992764;28;20401;-72
2022/03/05 07:33:38;;;;;;;0.63;0.25;;;4.50;99.90;;;;;;4993877;28;20088;-72
2022/03/05 07:36:04;;;;;;;0.60;0.60;;;4.50;99.90;;;;;;4993745;28;20026;-71
2022/03/05 07:38:31;;;;;;;0.73;0.47;;;4.70;99.90;;;;;;4993735;28;20023;-71
2022/03/05 07:40:57;;;;;;;0.00;0.00;;;4.80;99.90;;;;;;4992953;28;20459;-71
2022/03/05 07:43:23;;;;;;;0.20;0.20;;;4.90;99.90;;;;;;4993391;28;20069;-72
2022/03/05 07:45:49;;;;;;;0.10;0.10;;;5.00;99.90;;;;;;4993692;28;20035;-72
2022/03/05 07:48:19;;;;;;;0.38;0.38;;;5.10;99.90;;;;;;4993542;28;20034;-72
2022/03/05 07:50:45;;;;;;;0.13;0.13;;;5.20;99.90;;;;;;4993619;28;20019;-72
2022/03/05 07:53:11;;;;;;;0.40;0.40;;;5.60;99.90;;;;;;4993493;28;20600;-73
2022/03/05 07:55:37;;;;;;;0.13;0.13;;;7.60;99.90;;;;;;4993790;28;20113;-73
2022/03/05 07:58:03;;;;;;;0.60;0.60;;;9.90;99.90;;;;;;4992985;28;20018;-73
2022/03/05 08:00:29;;;;;;;0.30;0.30;;;10.80;99.90;;;;;;4986141;28;20648;-72
2022/03/05 08:02:55;;;;;;;0.20;0.20;;;10.40;99.90;;;;;;4974135;28;20047;-72
2022/03/05 08:05:20;;;;;;;0.08;0.08;;;9.00;99.90;;;;;;4974648;28;20027;-72
2022/03/05 08:07:46;;;;;;;0.00;0.00;;;8.20;99.90;;;;;;4974013;28;20493;-72
2022/03/05 08:10:12;;;;;;;0.00;0.00;;;7.50;99.90;;;;;;4973139;28;20105;-72
2022/03/05 08:12:38;;;;;;;0.00;0.00;;;7.20;99.90;;;;;;4973642;28;20134;-72
2022/03/05 08:15:05;;;;;;;0.05;0.05;;;7.00;99.90;;;;;;4973903;28;20469;-72
2022/03/05 08:17:31;;;;;;;0.17;0.17;;;6.80;99.90;;;;;;4973068;28;20086;-72
2022/03/05 08:19:56;;;;;;;0.10;0.10;;;6.70;99.90;;;;;;5005341;28;20027;-72
2022/03/05 08:22:22;;;;;;;0.08;0.08;;;6.70;99.90;;;;;;4974039;28;20035;-73
2022/03/05 08:24:48;;;;;;;0.03;0.03;;;6.80;99.90;;;;;;4973498;28;20026;-71
2022/03/05 08:27:13;;;;;;;0.65;0.60;;;6.90;99.90;;;;;;4973962;28;20114;-72
2022/03/05 08:29:39;;;;;;;0.30;0.30;;;7.10;99.90;;;;;;4975448;28;20526;-72
2022/03/05 08:32:05;;;;;;;1.25;0.98;;;8.00;99.90;;;;;;4977763;28;20410;-73
2022/03/05 08:34:30;;;;;;;0.20;0.20;;;10.40;99.90;;;;;;4977690;28;20097;-72
2022/03/05 08:36:56;;;;;;;0.30;0.15;;;12.60;99.90;;;;;;4977767;28;20034;-72
2022/03/05 08:39:22;;;;;;;2.03;0.40;;;14.10;99.90;;;;;;4977277;28;20027;-73
2022/03/05 08:41:48;;;;;;;2.60;0.57;;;15.40;99.90;;;;;;4976158;28;20122;-73
2022/03/05 08:44:16;;;;;;;1.00;0.50;;;16.30;99.90;;;;;;4977314;28;20498;-73
2022/03/05 08:46:42;;;;;;;3.72;0.30;;;16.70;99.90;;;;;;4977519;28;20058;-74
2022/03/05 08:49:08;;;;;;;0.73;0.25;;;17.20;99.90;;;;;;4980729;28;20033;-75
2022/03/05 08:51:33;;;;;;;0.40;0.40;;;17.90;99.50;;;;;;4995858;28;20037;-75
2022/03/05 08:53:59;;;;;;;2.38;0.73;;;17.10;99.40;;;;;;4996791;28;20393;-73
2022/03/05 08:56:25;;;;;;;0.32;0.30;;;16.80;99.90;;;;;;4996641;28;20045;-75
2022/03/05 08:58:50;;;;;;;45.65;2.60;;;16.50;99.90;;;;;;4996603;28;20105;-74
2022/03/05 09:01:16;;;;;;;0.20;0.20;;;15.60;99.90;;;;;;4982826;28;20061;-74
2022/03/05 09:03:42;;;;;;;0.22;0.22;;;15.00;99.90;;;;;;4976807;28;20081;-74
2022/03/05 09:06:08;;;;;;;0.13;0.13;;;14.50;99.90;;;;;;4977072;28;20030;-73
2022/03/05 09:08:33;;;;;;;6.28;0.38;;;14.10;99.90;;;;;;4976547;28;20023;-74
2022/03/05 09:10:59;;;;;;;0.30;0.30;;;13.50;99.90;;;;;;4976570;28;20034;-73
2022/03/05 09:13:25;;;;;;;0.55;0.52;;;12.90;99.90;;;;;;4976693;28;20402;-73
2022/03/05 09:15:51;;;;;;;0.90;0.30;;;13.30;99.90;;;;;;4977723;28;20487;-74
2022/03/05 09:18:16;;;;;;;1.92;1.40;;;12.60;99.90;;;;;;4977074;28;20110;-74
2022/03/05 09:20:46;;;;;;;33.92;2.80;;;12.80;99.90;;;;;;4977143;28;20061;-73
2022/03/05 09:23:12;;;;;;;0.00;0.00;;;12.80;99.90;;;;;;4976841;28;20106;-74
2022/03/05 09:25:38;;;;;;;0.40;0.35;;;13.40;99.90;;;;;;4975999;28;20031;-74
2022/03/05 09:28:04;;;;;;;0.00;0.00;;;13.40;99.90;;;;;;4976275;28;20038;-74
2022/03/05 09:30:29;;;;;;;0.25;0.25;;;12.70;99.90;;;;;;4976456;28;20402;-74
2022/03/05 09:32:55;;;;;;;0.10;0.10;;;13.70;99.90;;;;;;4976601;28;20026;-73
2022/03/05 09:35:21;;;;;;;0.00;0.00;;;14.60;99.90;;;;;;4976427;28;20035;-74
2022/03/05 09:37:46;;;;;;;0.10;0.10;;;15.00;99.90;;;;;;4976399;28;20039;-75
2022/03/05 09:40:12;;;;;;;2.83;0.85;;;14.70;99.90;;;;;;4977760;28;20027;-74
2022/03/05 09:42:43;;;;;;;0.98;0.77;;;15.40;99.90;;;;;;4976873;28;20031;-75
2022/03/05 09:45:11;;;;;;;0.85;0.40;;;17.00;99.90;;;;;;4975309;28;20133;-74
2022/03/05 09:47:41;;;;;;;1.30;0.88;;;17.50;99.90;;;;;;4976209;28;20089;-75
2022/03/05 09:50:08;;;;;;;1.27;0.70;;;19.10;99.80;;;;;;4986897;28;20054;-74
2022/03/05 09:52:34;;;;;;;3.20;1.23;;;19.00;97.10;;;;;;4995518;28;20101;-73
2022/03/05 09:55:03;;;;;;;1.55;0.30;;;19.00;97.90;;;;;;4995288;28;20081;-73
2022/03/05 09:57:29;;;;;;;1.98;0.30;;;17.60;97.70;;;;;;4995460;28;20490;-73
2022/03/05 09:59:54;;;;;;;0.55;0.22;;;15.50;99.90;;;;;;4992602;28;20093;-73
2022/03/05 10:02:20;;;;;;;2.05;0.75;;;14.90;99.90;;;;;;4975358;28;20118;-74
2022/03/05 10:04:45;;;;;;;0.10;0.10;;;14.10;99.90;;;;;;4976024;28;20500;-73
2022/03/05 10:07:20;;;;;;;0.35;0.35;;;13.60;99.90;;;;;;4976399;28;20506;-74
2022/03/05 10:09:48;;;;;;;0.80;0.65;;;13.30;99.90;;;;;;4975559;28;20037;-73
2022/03/05 10:12:33;;;;;;;0.38;0.38;;;13.10;99.90;;;;;;4974422;28;20027;-73
2022/03/05 10:15:09;;;;;;;0.50;0.22;;;12.90;99.90;;;;;;4975691;28;20035;-74
2022/03/05 10:17:53;;;;;;;0.10;0.10;;;12.50;99.90;;;;;;4975495;28;20029;-74
2022/03/05 10:20:20;;;;;;;0.30;0.10;;;12.50;99.90;;;;;;4975755;28;20031;-74
2022/03/05 10:22:53;;;;;;;0.70;0.32;;;12.50;99.90;;;;;;4975596;28;20109;-73
2022/03/05 10:25:28;;;;;;;0.60;0.40;;;12.30;99.90;;;;;;4975435;28;20106;-73
2022/03/05 10:28:00;;;;;;;0.22;0.22;;;12.50;99.90;;;;;;4975561;28;20397;-73
2022/03/05 10:30:31;;;;;;;0.10;0.10;;;12.10;99.90;;;;;;5006682;28;20445;-73
2022/03/05 10:32:57;;;;;;;0.20;0.20;;;11.90;99.90;;;;;;4975225;28;20038;-73
2022/03/05 10:35:22;;;;;;;0.15;0.15;;;12.00;99.90;;;;;;4975387;28;20486;-73
2022/03/05 10:37:52;;;;;;;0.68;0.52;;;12.00;99.90;;;;;;4974622;28;20046;-72
2022/03/05 10:40:28;;;;;;;0.13;0.13;;;12.20;99.90;;;;;;4975420;28;20015;-73
2022/03/05 10:42:57;;;;;;;0.30;0.30;;;12.20;99.90;;;;;;4975397;28;20031;-73
2022/03/05 10:45:23;;;;;;;0.45;0.45;;;12.50;99.90;;;;;;4974978;28;20125;-73
2022/03/05 10:47:49;;;;;;;0.10;0.10;;;12.40;99.90;;;;;;4974875;28;20510;-73
2022/03/05 10:50:15;;;;;;;0.10;0.10;;;12.30;99.90;;;;;;4986517;28;20019;-72
2022/03/05 10:52:52;;;;;;;0.40;0.30;;;12.40;99.90;;;;;;4993472;28;20049;-73
2022/03/05 10:55:26;;;;;;;0.40;0.40;;;12.40;99.90;;;;;;4994108;28;20104;-72
2022/03/05 10:58:01;;;;;;;0.00;0.00;;;12.40;99.90;;;;;;4994499;28;20022;-73
2022/03/05 11:00:29;;;;;;;0.30;0.20;;;12.60;99.90;;;;;;4986966;28;20027;-74
2022/03/05 11:02:56;;;;;;;1.83;0.50;;;12.80;99.90;;;;;;4974745;28;20075;-72
2022/03/05 11:05:23;;;;;;;0.22;0.10;;;13.00;99.90;;;;;;4974451;28;20023;-73
2022/03/05 11:07:49;;;;;;;0.47;0.25;;;13.30;99.90;;;;;;4974935;28;20109;-73
2022/03/05 11:10:17;;;;;;;0.45;0.45;;;13.00;99.90;;;;;;4989659;28;20502;-73
2022/03/05 11:12:45;;;;;;;0.13;0.13;;;12.60;99.90;;;;;;4973335;28;20589;-73
2022/03/05 11:15:11;;;;;;;0.20;0.20;;;12.50;99.90;;;;;;4974625;28;20030;-72
2022/03/05 11:17:38;;;;;;;0.68;0.60;;;12.60;99.90;;;;;;4974316;28;20031;-72
2022/03/05 11:20:04;;;;;;;0.25;0.15;;;13.00;99.90;;;;;;4975403;28;20023;-72
2022/03/05 11:22:31;;;;;;;0.30;0.17;;;13.10;99.90;;;;;;4974873;28;20113;-73
2022/03/05 11:24:57;;;;;;;2.80;0.88;;;12.90;99.90;;;;;;4974169;28;20031;-73
2022/03/05 11:27:23;;;;;;;0.00;0.00;;;12.80;99.90;;;;;;4974055;28;20061;-73
2022/03/05 11:30:00;;;;;;;0.30;0.30;;;12.70;99.90;;;;;;4973954;28;20097;-73
2022/03/05 11:32:32;;;;;;;5.47;1.85;;;12.70;99.90;;;;;;4974771;28;20057;-73
2022/03/05 11:34:58;;;;;;;0.20;0.20;;;12.50;99.90;;;;;;4974347;28;20035;-73
2022/03/05 11:37:33;;;;;;;0.00;0.00;;;12.70;99.90;;;;;;4974912;28;20034;-73
2022/03/05 11:40:05;;;;;;;0.40;0.40;;;12.50;99.90;;;;;;4974352;28;20015;-72
2022/03/05 11:42:36;;;;;;;4.32;1.95;;;12.10;99.90;;;;;;4974230;28;20114;-73
2022/03/05 11:45:30;;;;;;;1.08;0.10;;;11.90;99.90;;;;;;4974159;28;20047;-73
2022/03/05 11:48:25;;;;;;;0.00;0.00;;;12.20;99.90;;;;;;4975848;28;20031;-73
2022/03/05 11:50:55;;;;;;;0.10;0.10;;;12.60;99.90;;;;;;4990545;28;20018;-72
2022/03/05 11:53:21;;;;;;;4.30;1.27;;;12.90;99.90;;;;;;4993616;28;20034;-73
2022/03/05 11:55:47;;;;;;;0.00;0.00;;;13.30;99.90;;;;;;4993772;28;20175;-73
2022/03/05 11:58:13;;;;;;;0.05;0.03;;;13.80;99.90;;;;;;4993606;28;20118;-73
2022/03/05 12:00:41;;;;;;;0.00;0.00;;;13.70;99.90;;;;;;4993328;28;20022;-73
2022/03/05 12:03:07;;;;;;;0.65;0.35;;;13.40;99.90;;;;;;4994116;28;20092;-73
2022/03/05 12:05:32;;;;;;;0.17;0.17;;;13.00;99.90;;;;;;4997609;28;20102;-72
2022/03/05 12:07:59;;;;;;;0.03;0.03;;;12.80;99.90;;;;;;4996905;28;20034;-72
2022/03/05 12:10:25;;;;;;;0.35;0.35;;;12.30;99.90;;;;;;4997664;28;20022;-72
2022/03/05 12:12:58;;;;;;;0.00;0.00;;;12.40;99.90;;;;;;4995524;28;20030;-72
2022/03/05 12:15:27;;;;;;;0.47;0.32;;;12.90;99.90;;;;;;4997387;28;20101;-73
2022/03/05 12:17:53;;;;;;;0.55;0.55;;;13.10;99.90;;;;;;4997128;28;20169;-74
2022/03/05 12:20:29;;;;;;;0.10;0.10;;;13.10;99.90;;;;;;4997605;28;20026;-74
2022/03/05 12:22:58;;;;;;;1.35;0.20;;;13.10;99.90;;;;;;4996640;28;20401;-73
2022/03/05 12:25:25;;;;;;;0.00;0.00;;;13.20;99.90;;;;;;4997001;28;20105;-73
2022/03/05 12:27:52;;;;;;;0.52;0.20;;;13.20;99.50;;;;;;4996968;28;20026;-73
2022/03/05 12:30:19;;;;;;;2.88;1.08;;;13.30;99.90;;;;;;4997575;28;20021;-73
2022/03/05 12:32:47;;;;;;;0.00;0.00;;;13.10;99.90;;;;;;4997011;28;20402;-73
2022/03/05 12:35:15;;;;;;;0.10;0.10;;;13.50;99.90;;;;;;4997096;28;20490;-74
2022/03/05 12:37:43;;;;;;;0.10;0.10;;;13.60;99.20;;;;;;4996828;28;20445;-74
2022/03/05 12:40:09;;;;;;;0.20;0.20;;;13.30;99.70;;;;;;4996970;28;20085;-73
2022/03/05 12:42:38;;;;;;;0.65;0.43;;;13.40;99.90;;;;;;4996839;28;20056;-73
2022/03/05 12:45:06;;;;;;;0.00;0.00;;;13.50;99.90;;;;;;4996660;28;20060;-74
2022/03/05 12:47:35;;;;;;;0.10;0.10;;;14.10;99.90;;;;;;4996568;28;20031;-74
2022/03/05 12:50:19;;;;;;;0.35;0.35;;;13.90;99.20;;;;;;4996503;28;20033;-73